Time;durP1;ratioP1;P1;durP2;ratioP2;P2;SDS_P1;SDS_P2;PMS_P1;PMS_P2;Temp;Humidity;BMP_temperature;BMP_pressure;BME280_temperature;BME280_humidity;BME280_pressure;Samples;Min_cycle;Max_cycle;Signal;HPM_P1;HPM_P2
2024/01/25 00:00:31;;;;;;;19.15;4.35;;;;;;;18.87;57.01;102828.50;5056969;28;20039;-51
2024/01/25 00:02:56;;;;;;;14.55;4.63;;;;;;;18.85;57.17;102836.13;5057693;28;20143;-47
2024/01/25 00:05:22;;;;;;;13.05;3.90;;;;;;;18.87;57.14;102835.88;5081110;28;20032;-53
2024/01/25 00:07:48;;;;;;;15.60;4.30;;;;;;;18.84;57.08;102830.88;5064162;28;20027;-49
2024/01/25 00:10:15;;;;;;;15.98;4.57;;;;;;;18.85;57.28;102836.13;5068772;28;20412;-51
2024/01/25 00:12:42;;;;;;;11.20;3.80;;;;;;;18.82;57.04;102828.38;5071996;28;20035;-54
2024/01/25 00:15:08;;;;;;;14.30;4.18;;;;;;;18.81;57.17;102823.94;5064957;28;20020;-54
2024/01/25 00:17:33;;;;;;;15.25;4.40;;;;;;;18.80;57.18;102836.00;5079749;28;20027;-53
2024/01/25 00:19:59;;;;;;;18.77;4.60;;;;;;;18.81;57.37;102828.59;5073358;28;20095;-53
2024/01/25 00:22:24;;;;;;;11.68;4.00;;;;;;;18.81;57.32;102815.72;5078443;28;20024;-52
2024/01/25 00:24:49;;;;;;;14.38;4.30;;;;;;;18.79;57.18;102811.53;5073383;28;20441;-53
2024/01/25 00:27:15;;;;;;;18.15;4.47;;;;;;;18.74;57.31;102810.28;5075322;28;20084;-51
2024/01/25 00:29:41;;;;;;;16.90;4.47;;;;;;;18.75;57.06;102820.22;5069715;28;20025;-51
2024/01/25 00:32:06;;;;;;;13.73;4.57;;;;;;;18.74;57.25;102826.78;5078840;28;20223;-49
2024/01/25 00:34:32;;;;;;;16.90;4.63;;;;;;;18.73;57.10;102824.28;5080476;28;20024;-49
2024/01/25 00:36:58;;;;;;;17.13;4.40;;;;;;;18.72;57.21;102825.34;5077303;28;20031;-51
2024/01/25 00:39:23;;;;;;;16.92;4.72;;;;;;;18.71;57.17;102824.50;5078581;28;20385;-53
2024/01/25 00:41:51;;;;;;;14.27;4.53;;;;;;;18.72;57.28;102828.94;5062681;28;20402;-53
2024/01/25 00:44:17;;;;;;;18.15;4.57;;;;;;;18.72;57.22;102826.19;5078331;28;20385;-51
2024/01/25 00:46:43;;;;;;;17.73;4.80;;;;;;;18.68;57.06;102827.72;5080847;28;20129;-47
2024/01/25 00:49:08;;;;;;;18.58;5.07;;;;;;;18.66;57.30;102821.59;5067001;28;20037;-51
2024/01/25 00:51:36;;;;;;;13.95;4.20;;;;;;;18.66;57.17;102821.59;5071355;28;20031;-51
2024/01/25 00:54:02;;;;;;;13.07;4.40;;;;;;;18.67;57.18;102805.97;5073263;28;20282;-49
2024/01/25 00:56:27;;;;;;;14.25;4.53;;;;;;;18.67;57.31;102808.72;5078754;28;20665;-46
2024/01/25 00:58:53;;;;;;;14.70;4.18;;;;;;;18.66;57.37;102815.28;5058778;28;20553;-50
2024/01/25 01:01:21;;;;;;;15.63;4.65;;;;;;;18.66;57.33;102829.84;5066615;28;20036;-48
2024/01/25 01:03:52;;;;;;;16.23;4.25;;;;;;;18.65;57.15;102824.59;5082174;28;20379;-50
2024/01/25 01:06:18;;;;;;;13.85;4.82;;;;;;;18.63;57.17;102816.59;5080315;28;20031;-52
2024/01/25 01:08:44;;;;;;;13.40;4.18;;;;;;;18.64;56.98;102829.25;5078726;28;20397;-46
2024/01/25 01:11:09;;;;;;;15.00;4.28;;;;;;;18.64;57.28;102840.25;5069352;28;20054;-52
2024/01/25 01:13:35;;;;;;;16.42;4.63;;;;;;;18.63;57.27;102851.47;5036619;28;20032;-54
2024/01/25 01:16:00;;;;;;;14.48;4.63;;;;;;;18.60;57.20;102841.75;5071885;28;20469;-49
2024/01/25 01:18:26;;;;;;;12.85;4.50;;;;;;;18.62;57.12;102847.88;5082192;28;20040;-55
2024/01/25 01:20:51;;;;;;;17.30;4.95;;;;;;;18.61;57.26;102857.19;5064145;28;20024;-52
2024/01/25 01:23:16;;;;;;;17.10;4.43;;;;;;;18.60;57.38;102869.22;5082354;28;20028;-51
2024/01/25 01:25:42;;;;;;;17.40;4.85;;;;;;;18.60;57.18;102870.09;5082171;28;20028;-49
2024/01/25 01:28:07;;;;;;;16.52;4.70;;;;;;;18.58;57.42;102869.47;5069777;28;20036;-53
2024/01/25 01:30:32;;;;;;;18.00;5.07;;;;;;;18.58;57.47;102865.91;5072846;28;20625;-51
2024/01/25 01:32:58;;;;;;;13.52;4.43;;;;;;;18.58;57.16;102871.38;5078189;28;20074;-55
2024/01/25 01:35:23;;;;;;;15.43;4.43;;;;;;;18.58;57.14;102880.44;5079206;28;20377;-51
2024/01/25 01:37:49;;;;;;;13.00;4.03;;;;;;;18.57;57.23;102886.19;5058542;28;20117;-53
2024/01/25 01:40:14;;;;;;;14.80;4.10;;;;;;;18.56;57.21;102882.56;5084118;28;20073;-53
2024/01/25 01:42:39;;;;;;;17.48;4.88;;;;;;;18.53;57.44;102896.78;5084107;28;20285;-54
2024/01/25 01:45:05;;;;;;;12.23;4.22;;;;;;;18.52;57.13;102900.59;5073146;28;20481;-54
2024/01/25 01:47:31;;;;;;;11.48;3.97;;;;;;;18.52;57.22;102905.25;5077966;28;20074;-55
2024/01/25 01:49:57;;;;;;;14.57;4.30;;;;;;;18.52;57.37;102902.53;5083590;28;20024;-54
2024/01/25 01:52:22;;;;;;;15.88;4.53;;;;;;;18.51;57.37;102898.91;5061831;28;20131;-52
2024/01/25 01:54:48;;;;;;;17.90;4.32;;;;;;;18.50;57.33;102901.91;5084834;28;20024;-49
2024/01/25 01:57:13;;;;;;;15.27;4.95;;;;;;;18.49;57.24;102908.47;5075863;28;20475;-52
2024/01/25 01:59:39;;;;;;;13.35;4.47;;;;;;;18.49;57.41;102900.22;5067950;28;20032;-56
2024/01/25 02:02:04;;;;;;;18.17;4.68;;;;;;;18.49;57.34;102900.22;5077617;28;20047;-51
2024/01/25 02:04:29;;;;;;;15.60;4.85;;;;;;;18.47;57.24;102899.59;5068091;28;20058;-55
2024/01/25 02:06:55;;;;;;;15.40;4.53;;;;;;;18.47;57.26;102899.59;5066182;28;20032;-51
2024/01/25 02:09:21;;;;;;;14.63;4.63;;;;;;;18.45;57.50;102902.59;5083977;28;20032;-53
2024/01/25 02:11:47;;;;;;;14.75;4.47;;;;;;;18.45;57.54;102886.13;5078244;28;20482;-53
2024/01/25 02:14:12;;;;;;;17.02;4.80;;;;;;;18.42;57.25;102892.91;5075056;28;20031;-54
2024/01/25 02:16:38;;;;;;;15.25;4.45;;;;;;;18.42;57.37;102887.41;5079515;28;20031;-52
2024/01/25 02:19:03;;;;;;;13.05;4.20;;;;;;;18.42;57.29;102892.09;5063017;28;20035;-52
2024/01/25 02:21:29;;;;;;;15.05;4.50;;;;;;;18.41;57.30;102893.16;5073401;28;20529;-52
2024/01/25 02:23:54;;;;;;;17.95;5.30;;;;;;;18.38;57.13;102891.69;5082103;28;20150;-55
2024/01/25 02:26:19;;;;;;;12.57;4.28;;;;;;;18.38;57.33;102891.69;5075144;28;20085;-54
2024/01/25 02:28:45;;;;;;;18.35;4.07;;;;;;;18.39;57.44;102892.53;5068375;28;20492;-55
2024/01/25 02:31:10;;;;;;;15.75;4.40;;;;;;;18.37;57.25;102889.16;5066904;28;20576;-52
2024/01/25 02:33:36;;;;;;;17.60;4.55;;;;;;;18.36;57.41;102902.06;5070284;28;20487;-51
2024/01/25 02:36:01;;;;;;;17.70;4.30;;;;;;;18.35;57.46;102894.88;5071278;28;20028;-47
2024/01/25 02:38:26;;;;;;;16.75;5.05;;;;;;;18.33;57.27;102905.28;5080515;28;20031;-52
2024/01/25 02:40:53;;;;;;;18.38;4.63;;;;;;;18.34;57.35;102897.88;5066671;28;20039;-49
2024/01/25 02:43:19;;;;;;;28.10;5.25;;;;;;;18.33;57.38;102894.31;5081170;28;20468;-53
2024/01/25 02:45:44;;;;;;;17.20;4.55;;;;;;;18.31;57.56;102899.16;5058632;28;20031;-50
2024/01/25 02:48:10;;;;;;;15.10;4.15;;;;;;;18.31;57.42;102904.66;5062023;28;20020;-51
2024/01/25 02:50:35;;;;;;;13.23;4.38;;;;;;;18.30;57.30;102902.97;5073305;28;20183;-49
2024/01/25 02:53:00;;;;;;;15.93;4.55;;;;;;;18.30;57.57;102905.72;5076025;28;20031;-52
2024/01/25 02:55:26;;;;;;;17.45;5.22;;;;;;;18.27;57.34;102909.78;5081126;28;20096;-51
2024/01/25 02:57:51;;;;;;;15.40;4.65;;;;;;;18.29;57.24;102912.28;5072858;28;20052;-51
2024/01/25 03:00:17;;;;;;;18.02;5.07;;;;;;;18.27;57.39;102914.41;5069102;28;20400;-53
2024/01/25 03:02:42;;;;;;;13.32;3.75;;;;;;;18.24;57.28;102912.97;5077277;28;20461;-49
2024/01/25 03:05:07;;;;;;;21.15;4.50;;;;;;;18.25;57.57;102922.06;5071615;28;20031;-51
2024/01/25 03:07:33;;;;;;;18.52;4.95;;;;;;;18.21;57.28;102913.44;5079752;28;20020;-46
2024/01/25 03:09:58;;;;;;;15.43;4.65;;;;;;;18.20;57.51;102906.25;5068268;28;20107;-51
2024/01/25 03:12:23;;;;;;;15.63;4.55;;;;;;;18.20;57.49;102910.94;5083975;28;20480;-51
2024/01/25 03:14:49;;;;;;;15.23;4.22;;;;;;;18.20;57.45;102910.94;5071842;28;20349;-47
2024/01/25 03:17:14;;;;;;;13.52;4.13;;;;;;;18.20;57.49;102910.94;5065225;28;20040;-49
2024/01/25 03:19:40;;;;;;;20.02;5.05;;;;;;;18.18;57.47;102915.78;5072690;28;20020;-49
2024/01/25 03:22:05;;;;;;;16.27;4.60;;;;;;;18.18;57.46;102918.53;5081959;28;20484;-51
2024/01/25 03:24:30;;;;;;;13.07;4.53;;;;;;;18.17;57.53;102920.41;5075844;28;20028;-51
2024/01/25 03:26:56;;;;;;;15.48;4.70;;;;;;;18.15;57.51;102917.09;5077428;28;20401;-48
2024/01/25 03:29:21;;;;;;;18.80;4.47;;;;;;;18.15;57.63;102913.50;5074057;28;20167;-49
2024/01/25 03:31:47;;;;;;;13.10;4.25;;;;;;;18.15;57.41;102906.09;5073276;28;20024;-50
2024/01/25 03:34:12;;;;;;;19.45;4.80;;;;;;;18.15;57.51;102913.50;5058670;28;20035;-50
2024/01/25 03:36:39;;;;;;;17.10;4.75;;;;;;;18.12;57.19;102901.06;5078439;28;20115;-52
2024/01/25 03:39:05;;;;;;;17.42;4.57;;;;;;;18.13;57.38;102908.22;5073615;28;20043;-52
2024/01/25 03:41:30;;;;;;;17.00;4.65;;;;;;;18.10;57.52;102897.72;5065711;28;20024;-54
2024/01/25 03:43:55;;;;;;;13.00;4.60;;;;;;;18.11;57.43;102908.47;5082665;28;20020;-51
2024/01/25 03:46:21;;;;;;;15.43;4.53;;;;;;;18.10;57.46;102903.22;5068955;28;20034;-52
2024/01/25 03:48:46;;;;;;;17.17;4.70;;;;;;;18.08;57.08;102906.16;5071040;28;20528;-48
2024/01/25 03:51:12;;;;;;;16.15;4.40;;;;;;;18.06;57.33;102902.84;5056862;28;20028;-48
2024/01/25 03:53:37;;;;;;;18.83;5.05;;;;;;;18.05;57.32;102906.63;5080214;28;20021;-50
2024/01/25 03:56:03;;;;;;;17.40;4.43;;;;;;;18.07;57.44;102906.41;5061159;28;20131;-50
2024/01/25 03:58:28;;;;;;;17.33;4.75;;;;;;;18.07;57.38;102906.41;5074266;28;20039;-51
2024/01/25 04:00:54;;;;;;;16.52;4.47;;;;;;;18.04;57.20;102910.44;5071037;28;20385;-51
2024/01/25 04:03:19;;;;;;;17.10;4.47;;;;;;;18.03;57.18;102895.03;5073901;28;20036;-47
2024/01/25 04:05:44;;;;;;;17.25;4.70;;;;;;;18.04;57.42;102902.22;5069809;28;20028;-52
2024/01/25 04:08:10;;;;;;;13.82;4.00;;;;;;;18.01;57.22;102899.91;5074123;28;20024;-51
2024/01/25 04:10:35;;;;;;;12.98;4.28;;;;;;;17.98;57.18;102903.13;5051719;28;20051;-50
2024/01/25 04:13:01;;;;;;;17.92;4.40;;;;;;;18.01;57.21;102912.81;5078702;28;20528;-49
2024/01/25 04:15:27;;;;;;;17.48;5.18;;;;;;;17.99;57.10;102920.41;5069470;28;20037;-49
2024/01/25 04:17:53;;;;;;;17.25;5.05;;;;;;;17.97;57.31;102915.16;5065081;28;20107;-50
2024/01/25 04:20:19;;;;;;;15.52;4.07;;;;;;;17.98;57.35;102913.25;5075666;28;20062;-53
2024/01/25 04:22:44;;;;;;;21.08;4.97;;;;;;;17.96;57.21;102918.97;5065327;28;20028;-49
2024/01/25 04:25:10;;;;;;;16.25;4.88;;;;;;;17.94;57.50;102912.84;5069540;28;20083;-47
2024/01/25 04:27:38;;;;;;;11.80;3.85;;;;;;;17.94;57.25;102901.88;5080331;28;20054;-51
2024/01/25 04:30:03;;;;;;;15.98;4.50;;;;;;;17.92;57.15;102906.75;5063971;28;20309;-55
2024/01/25 04:32:29;;;;;;;14.75;4.25;;;;;;;17.94;57.34;102899.13;5080456;28;20498;-54
2024/01/25 04:34:54;;;;;;;17.95;5.32;;;;;;;17.93;57.18;102905.69;5083484;28;20054;-53
2024/01/25 04:37:20;;;;;;;16.65;4.72;;;;;;;17.93;57.26;102912.00;5082718;28;20038;-52
2024/01/25 04:39:45;;;;;;;14.00;4.28;;;;;;;17.92;57.32;102913.06;5059014;28;20032;-52
2024/01/25 04:42:10;;;;;;;16.08;4.68;;;;;;;17.91;57.33;102903.13;5076088;28;20036;-55
2024/01/25 04:44:36;;;;;;;14.98;4.10;;;;;;;17.90;57.19;102898.75;5084907;28;20042;-53
2024/01/25 04:47:01;;;;;;;15.93;4.20;;;;;;;17.89;57.25;102899.81;5084828;28;20024;-53
2024/01/25 04:49:27;;;;;;;16.23;4.63;;;;;;;17.87;57.22;102909.31;5081566;28;20059;-55
2024/01/25 04:51:52;;;;;;;15.82;4.50;;;;;;;17.87;57.03;102909.31;5080432;28;20085;-52
2024/01/25 04:54:17;;;;;;;17.77;4.43;;;;;;;17.81;57.02;102913.81;5082892;28;20142;-53
2024/01/25 04:56:43;;;;;;;16.10;4.72;;;;;;;17.82;57.39;102915.47;5077768;28;20044;-52
2024/01/25 04:59:09;;;;;;;15.52;4.53;;;;;;;17.90;57.20;102901.50;5081514;28;20028;-56
2024/01/25 05:01:34;;;;;;;14.00;4.18;;;;;;;17.92;57.06;102902.06;5067830;28;20342;-52
2024/01/25 05:04:00;;;;;;;16.30;4.60;;;;;;;17.99;56.91;102902.06;5080523;28;20032;-55
2024/01/25 05:06:25;;;;;;;13.80;4.20;;;;;;;18.06;56.90;102907.47;5084964;28;20102;-54
2024/01/25 05:08:51;;;;;;;14.10;3.92;;;;;;;18.12;56.89;102915.63;5084822;28;20464;-58
2024/01/25 05:11:16;;;;;;;15.38;4.50;;;;;;;18.15;56.80;102921.72;5077354;28;20028;-50
2024/01/25 05:13:41;;;;;;;15.25;3.97;;;;;;;18.21;56.80;102918.91;5083429;28;20024;-54
2024/01/25 05:16:07;;;;;;;14.35;4.13;;;;;;;18.26;56.92;102930.03;5077718;28;20026;-54
2024/01/25 05:18:32;;;;;;;13.95;3.85;;;;;;;18.33;56.79;102935.47;5057990;28;20102;-53
2024/01/25 05:20:58;;;;;;;12.60;4.07;;;;;;;18.43;56.79;102948.69;5080244;28;20016;-53
2024/01/25 05:23:24;;;;;;;13.77;4.57;;;;;;;18.53;56.73;102948.13;5074884;28;20032;-52
2024/01/25 05:25:49;;;;;;;13.10;3.90;;;;;;;18.61;56.57;102958.78;5076783;28;20031;-53
2024/01/25 05:28:15;;;;;;;10.48;3.90;;;;;;;18.70;56.52;102959.31;5073163;28;20036;-53
2024/01/25 05:30:40;;;;;;;12.90;4.35;;;;;;;18.77;56.21;102955.44;5075476;28;20024;-52
2024/01/25 05:33:06;;;;;;;13.30;4.07;;;;;;;18.84;56.19;102944.34;5083689;28;20059;-55
2024/01/25 05:35:34;;;;;;;9.63;3.55;;;;;;;18.92;56.43;102938.56;5074643;28;20032;-52
2024/01/25 05:37:59;;;;;;;14.82;4.32;;;;;;;18.98;56.03;102934.06;5081453;28;20536;-53
2024/01/25 05:40:25;;;;;;;15.23;4.10;;;;;;;19.02;56.17;102935.25;5072087;28;20111;-52
2024/01/25 05:42:50;;;;;;;14.20;4.50;;;;;;;19.06;56.00;102949.38;5078408;28;20028;-54
2024/01/25 05:45:15;;;;;;;12.55;4.30;;;;;;;19.08;56.05;102930.75;5077107;28;20464;-55
2024/01/25 05:47:41;;;;;;;11.73;3.97;;;;;;;19.06;55.90;102933.72;5069561;28;20032;-54
2024/01/25 05:50:06;;;;;;;13.35;3.83;;;;;;;19.02;55.88;102932.50;5057557;28;20111;-55
2024/01/25 05:52:32;;;;;;;12.18;4.43;;;;;;;18.93;56.10;102928.41;5084910;28;20020;-54
2024/01/25 05:54:57;;;;;;;9.95;3.42;;;;;;;18.89;56.05;102940.91;5077988;28;20035;-53
2024/01/25 05:57:23;;;;;;;11.93;3.70;;;;;;;18.88;56.25;102936.47;5040550;28;20055;-52
2024/01/25 05:59:48;;;;;;;16.55;4.05;;;;;;;18.90;56.34;102939.84;5082110;28;20051;-56
2024/01/25 06:02:14;;;;;;;10.40;4.07;;;;;;;18.89;56.17;102951.91;5083149;28;20060;-54
2024/01/25 06:04:39;;;;;;;11.65;4.07;;;;;;;18.92;56.07;102962.47;5078866;28;20069;-54
2024/01/25 06:07:05;;;;;;;12.55;3.97;;;;;;;18.93;55.80;102958.63;5076200;28;20137;-53
2024/01/25 06:09:31;;;;;;;10.98;3.75;;;;;;;18.92;55.86;102956.97;5076462;28;20043;-54
2024/01/25 06:11:57;;;;;;;14.32;3.70;;;;;;;18.91;55.67;102942.38;5082668;28;20030;-52
2024/01/25 06:14:23;;;;;;;11.70;3.50;;;;;;;18.89;55.65;102941.72;5079368;28;20020;-55
2024/01/25 06:16:49;;;;;;;15.00;4.25;;;;;;;18.91;55.70;102953.38;5081643;28;20046;-55
2024/01/25 06:19:14;;;;;;;14.23;4.22;;;;;;;18.87;55.59;102949.38;5074668;28;20464;-54
2024/01/25 06:21:40;;;;;;;10.82;3.80;;;;;;;18.86;55.66;102949.59;5071528;28;20043;-54
2024/01/25 06:24:06;;;;;;;14.40;4.22;;;;;;;18.85;55.46;102958.94;5083588;28;20036;-53
2024/01/25 06:26:31;;;;;;;16.30;4.25;;;;;;;18.83;55.38;102952.81;5081673;28;20435;-54
2024/01/25 06:28:57;;;;;;;13.75;4.13;;;;;;;18.84;55.16;102958.09;5077076;28;20024;-54
2024/01/25 06:31:23;;;;;;;13.35;4.20;;;;;;;18.84;55.37;102943.53;5068813;28;20469;-55
2024/01/25 06:33:50;;;;;;;12.68;3.83;;;;;;;18.87;55.56;102954.03;5076481;28;20514;-53
2024/01/25 06:36:16;;;;;;;15.10;4.05;;;;;;;18.86;55.43;102944.97;5079053;28;20055;-55
2024/01/25 06:38:41;;;;;;;12.88;4.00;;;;;;;18.83;55.61;102950.06;5081400;28;20563;-54
2024/01/25 06:41:08;;;;;;;12.43;4.18;;;;;;;18.80;55.41;102956.03;5071972;28;20052;-53
2024/01/25 06:43:33;;;;;;;13.18;4.45;;;;;;;18.77;55.81;102951.81;5076686;28;20050;-55
2024/01/25 06:45:59;;;;;;;11.27;4.07;;;;;;;18.79;55.59;102959.88;5072059;28;20290;-49
2024/01/25 06:48:24;;;;;;;16.75;4.90;;;;;;;18.84;55.67;102946.25;5083072;28;20058;-53
2024/01/25 06:50:50;;;;;;;12.93;4.32;;;;;;;18.84;55.49;102944.34;5080953;28;20156;-50
2024/01/25 06:53:16;;;;;;;16.23;4.35;;;;;;;18.84;55.34;102935.28;5076530;28;20051;-51
2024/01/25 06:55:42;;;;;;;14.02;4.60;;;;;;;18.84;55.26;102935.28;5079743;28;20482;-48
2024/01/25 06:58:08;;;;;;;11.93;4.03;;;;;;;18.82;55.07;102932.78;5077722;28;20463;-52
2024/01/25 07:00:33;;;;;;;12.60;4.30;;;;;;;18.82;55.21;102940.16;5078546;28;20360;-53
2024/01/25 07:02:58;;;;;;;12.18;4.18;;;;;;;18.81;55.24;102953.06;5068948;28;20040;-49
2024/01/25 07:05:24;;;;;;;12.30;3.88;;;;;;;18.78;55.00;102959.00;5082130;28;20027;-52
2024/01/25 07:07:49;;;;;;;12.20;4.18;;;;;;;18.76;55.32;102962.00;5061888;28;20020;-46
2024/01/25 07:10:15;;;;;;;14.57;4.00;;;;;;;18.75;55.24;102964.97;5079394;28;20032;-52
2024/01/25 07:12:40;;;;;;;12.73;4.60;;;;;;;18.69;54.98;102965.91;5074804;28;20058;-53
2024/01/25 07:15:06;;;;;;;11.10;3.83;;;;;;;18.65;55.24;102957.28;5058310;28;20024;-50
2024/01/25 07:17:31;;;;;;;15.90;4.53;;;;;;;18.64;54.77;102954.75;5080244;28;20502;-52
2024/01/25 07:19:57;;;;;;;12.05;4.28;;;;;;;18.64;55.04;102960.22;5076897;28;20029;-49
2024/01/25 07:22:22;;;;;;;16.77;4.50;;;;;;;18.62;54.95;102954.97;5072573;28;20134;-50
2024/01/25 07:24:47;;;;;;;12.15;4.32;;;;;;;18.62;54.97;102956.91;5082672;28;20117;-50
2024/01/25 07:27:13;;;;;;;13.82;4.95;;;;;;;18.58;55.09;102962.00;5077529;28;20028;-49
2024/01/25 07:29:38;;;;;;;12.00;3.92;;;;;;;18.56;55.05;102966.88;5069952;28;20032;-52
2024/01/25 07:32:04;;;;;;;11.70;4.18;;;;;;;18.54;55.05;102963.53;5079415;28;20032;-52
2024/01/25 07:34:29;;;;;;;13.52;4.35;;;;;;;18.56;55.17;102961.41;5082631;28;20027;-46
2024/01/25 07:36:55;;;;;;;15.10;4.13;;;;;;;18.58;55.22;102962.00;5083203;28;20032;-52
2024/01/25 07:39:20;;;;;;;16.08;4.60;;;;;;;18.59;54.91;102945.28;5078232;28;20088;-49
2024/01/25 07:41:46;;;;;;;12.52;4.72;;;;;;;18.58;55.06;102951.03;5063624;28;20263;-50
2024/01/25 07:44:12;;;;;;;12.70;3.97;;;;;;;18.61;55.24;102953.31;5065335;28;20024;-51
2024/01/25 07:46:37;;;;;;;14.38;4.53;;;;;;;18.62;55.10;102962.41;5080775;28;20501;-48
2024/01/25 07:49:03;;;;;;;11.45;4.00;;;;;;;18.59;55.07;102971.94;5079029;28;20028;-49
2024/01/25 07:51:28;;;;;;;14.98;4.38;;;;;;;18.57;54.98;102966.66;5079076;28;20157;-55
2024/01/25 07:53:54;;;;;;;13.27;4.30;;;;;;;18.57;55.16;102972.13;5076225;28;20046;-57
2024/01/25 07:56:21;;;;;;;13.20;4.05;;;;;;;18.55;55.21;102960.56;5078249;28;20089;-51
2024/01/25 07:58:48;;;;;;;15.75;4.50;;;;;;;18.56;54.86;102939.41;5082558;28;20028;-57
2024/01/25 08:01:17;;;;;;;18.40;4.38;;;;;;;18.59;55.18;102941.72;5073744;28;20089;-53
2024/01/25 08:03:42;;;;;;;12.38;3.80;;;;;;;18.57;55.02;102941.09;5073701;28;20023;-46
2024/01/25 08:06:08;;;;;;;13.20;4.45;;;;;;;18.55;54.77;102940.50;5082645;28;20027;-56
2024/01/25 08:08:33;;;;;;;13.77;4.90;;;;;;;18.54;55.15;102939.66;5079693;28;20541;-54
2024/01/25 08:10:59;;;;;;;13.35;4.95;;;;;;;18.53;55.17;102934.41;5056075;28;20028;-54
2024/01/25 08:13:24;;;;;;;17.05;4.75;;;;;;;18.52;55.28;102938.22;5063083;28;20042;-54
2024/01/25 08:15:51;;;;;;;19.40;4.57;;;;;;;18.48;55.32;102942.47;5071391;28;20508;-55
2024/01/25 08:18:18;;;;;;;16.92;4.35;;;;;;;18.46;55.27;102947.38;5072282;28;20535;-55
2024/01/25 08:20:44;;;;;;;17.05;4.57;;;;;;;18.44;55.25;102955.81;5073148;28;20416;-49
2024/01/25 08:23:10;;;;;;;14.82;4.18;;;;;;;18.46;55.27;102958.34;5083256;28;20070;-50
2024/01/25 08:25:35;;;;;;;15.23;4.43;;;;;;;18.45;55.53;102965.75;5077095;28;20012;-53
2024/01/25 08:28:01;;;;;;;12.20;3.83;;;;;;;18.48;55.50;102965.28;5070746;28;20023;-52
2024/01/25 08:30:26;;;;;;;14.40;4.30;;;;;;;18.51;55.52;102955.75;5072390;28;20020;-50
2024/01/25 08:32:51;;;;;;;14.10;4.45;;;;;;;18.49;55.35;102949.66;5080282;28;20048;-54
2024/01/25 08:35:17;;;;;;;16.75;4.70;;;;;;;18.49;55.48;102950.50;5078276;28;20114;-49
2024/01/25 08:37:43;;;;;;;16.60;4.88;;;;;;;18.52;55.50;102957.44;5060474;28;20035;-52
2024/01/25 08:40:09;;;;;;;16.05;4.70;;;;;;;18.51;55.44;102974.97;5064203;28;20056;-53
2024/01/25 08:42:35;;;;;;;12.48;4.68;;;;;;;18.51;55.46;102970.31;5064172;28;20024;-53
2024/01/25 08:45:00;;;;;;;19.20;5.30;;;;;;;18.50;55.50;102960.38;5057216;28;20077;-47
2024/01/25 08:47:26;;;;;;;17.15;4.30;;;;;;;18.51;55.49;102961.25;5078247;28;20093;-54
2024/01/25 08:49:51;;;;;;;14.50;4.05;;;;;;;18.49;55.52;102966.13;5078972;28;20016;-51
2024/01/25 08:52:17;;;;;;;17.85;4.72;;;;;;;18.48;55.58;102962.53;5053758;28;20036;-51
2024/01/25 08:54:43;;;;;;;16.00;4.35;;;;;;;18.48;55.66;102943.31;5081959;28;20043;-52
2024/01/25 08:57:09;;;;;;;14.77;4.45;;;;;;;18.48;55.36;102953.44;5071820;28;20052;-53
2024/01/25 08:59:37;;;;;;;14.60;4.50;;;;;;;18.48;55.28;102951.56;5061787;28;20482;-52
2024/01/25 09:02:04;;;;;;;12.10;4.25;;;;;;;18.48;55.42;102940.59;5070860;28;20028;-53
2024/01/25 09:04:29;;;;;;;13.20;4.28;;;;;;;18.48;55.52;102940.59;5070295;28;20040;-49
2024/01/25 09:06:55;;;;;;;14.45;3.88;;;;;;;18.48;55.35;102942.47;5076119;28;20020;-51
2024/01/25 09:09:20;;;;;;;16.98;4.05;;;;;;;18.49;55.60;102930.44;5075284;28;20401;-53
2024/01/25 09:11:46;;;;;;;12.07;4.28;;;;;;;18.49;55.62;102935.91;5077239;28;20150;-54
2024/01/25 09:14:11;;;;;;;17.48;5.22;;;;;;;18.47;55.57;102921.56;5082409;28;20077;-51
2024/01/25 09:16:38;;;;;;;14.02;4.43;;;;;;;18.48;55.64;102923.25;5070845;28;20165;-52
2024/01/25 09:19:04;;;;;;;14.98;3.95;;;;;;;18.48;55.34;102918.63;5072400;28;20214;-51
2024/01/25 09:21:30;;;;;;;19.13;4.60;;;;;;;18.48;55.29;102920.50;5079604;28;20028;-53
2024/01/25 09:23:55;;;;;;;14.15;4.68;;;;;;;18.46;55.46;102914.44;5051785;28;20025;-52
2024/01/25 09:26:20;;;;;;;13.82;4.05;;;;;;;18.43;55.41;102912.97;5067749;28;20101;-49
2024/01/25 09:28:46;;;;;;;15.98;4.90;;;;;;;18.42;54.99;102914.88;5073659;28;20028;-48
2024/01/25 09:31:11;;;;;;;14.18;4.90;;;;;;;18.35;55.66;102918.78;5069125;28;20128;-49
2024/01/25 09:33:37;;;;;;;15.80;4.72;;;;;;;18.33;55.76;102923.66;5076637;28;20100;-55
2024/01/25 09:36:02;;;;;;;13.73;4.60;;;;;;;18.30;55.66;102926.84;5072730;28;20036;-54
2024/01/25 09:38:27;;;;;;;12.98;4.43;;;;;;;18.26;55.88;102921.00;5074751;28;20487;-51
2024/01/25 09:40:53;;;;;;;17.27;4.85;;;;;;;18.27;55.92;102944.59;5085010;28;20030;-51
2024/01/25 09:43:20;;;;;;;14.25;4.60;;;;;;;18.25;55.67;102928.38;5080235;28;20228;-53
2024/01/25 09:45:46;;;;;;;13.75;4.55;;;;;;;18.23;55.91;102925.03;5059072;28;20077;-52
2024/01/25 09:48:13;;;;;;;12.32;4.10;;;;;;;18.24;55.89;102917.63;5077710;28;20063;-52
2024/01/25 09:50:39;;;;;;;15.77;5.20;;;;;;;18.27;55.99;102911.66;5064107;28;20028;-51
2024/01/25 09:53:05;;;;;;;15.38;4.85;;;;;;;18.32;55.83;102913.72;5081286;28;20020;-46
2024/01/25 09:55:32;;;;;;;17.23;4.88;;;;;;;18.34;55.69;102917.09;5066441;28;20308;-50
2024/01/25 09:57:58;;;;;;;11.98;4.38;;;;;;;18.35;55.90;102921.50;5049784;28;20046;-51
2024/01/25 10:00:23;;;;;;;15.73;4.85;;;;;;;18.34;55.68;102920.66;5076051;28;20031;-51
2024/01/25 10:02:52;;;;;;;15.95;4.95;;;;;;;18.35;55.67;102924.25;5077077;28;20569;-50
2024/01/25 10:05:18;;;;;;;15.40;4.65;;;;;;;18.35;55.75;102919.59;5085017;28;20165;-52
2024/01/25 10:07:45;;;;;;;21.27;5.60;;;;;;;18.42;55.81;102916.78;5074008;28;20031;-49
2024/01/25 10:10:12;;;;;;;25.60;5.18;;;;;;;18.52;56.38;102914.34;5081593;28;20024;-50
2024/01/25 10:12:38;;;;;;;67.68;7.50;;;;;;;18.64;57.50;102919.91;5085082;28;20024;-53
2024/01/25 10:15:04;;;;;;;129.15;10.50;;;;;;;23.49;49.17;102908.66;5080018;28;20074;-36
2024/01/25 10:17:30;;;;;;;85.78;7.03;;;;;;;24.82;46.10;102903.00;5076888;28;20028;-44
2024/01/25 10:19:56;;;;;;;36.33;6.07;;;;;;;25.21;44.59;102904.44;5076863;28;20372;-46
2024/01/25 10:22:22;;;;;;;142.85;11.27;;;;;;;25.62;43.55;102909.16;5063328;28;20031;-40
2024/01/25 10:24:50;;;;;;;73.13;7.70;;;;;;;25.92;42.95;102915.75;5065521;28;20092;-36
2024/01/25 10:27:16;;;;;;;39.67;6.38;;;;;;;26.09;42.27;102910.75;5079504;28;20515;-36
2024/01/25 10:29:42;;;;;;;50.85;7.60;;;;;;;26.24;41.78;102917.34;5067344;28;20016;-43
2024/01/25 10:32:09;;;;;;;41.15;7.22;;;;;;;26.38;40.71;102928.69;5080008;28;20551;-38
2024/01/25 10:34:38;;;;;;;38.78;6.35;;;;;;;26.40;40.59;102932.84;5066986;28;20107;-37
2024/01/25 10:37:05;;;;;;;50.97;7.18;;;;;;;26.50;39.60;102931.97;5073642;28;20016;-34
2024/01/25 10:39:32;;;;;;;24.98;5.88;;;;;;;26.44;39.79;102927.56;5081709;28;20183;-45
2024/01/25 10:41:58;;;;;;;22.08;5.50;;;;;;;26.64;39.31;102925.78;5082957;28;20024;-44
2024/01/25 10:44:24;;;;;;;25.75;6.20;;;;;;;26.69;38.82;102918.22;5073403;28;20536;-47
2024/01/25 10:46:49;;;;;;;19.42;5.53;;;;;;;26.72;38.51;102923.22;5085005;28;20134;-47
2024/01/25 10:49:16;;;;;;;31.40;6.38;;;;;;;26.66;38.73;102906.84;5069170;28;20418;-47
2024/01/25 10:51:41;;;;;;;19.55;6.10;;;;;;;26.74;38.44;102897.91;5087047;28;20032;-50
2024/01/25 10:54:12;;;;;;;21.75;5.47;;;;;;;26.88;38.39;102896.16;5068084;28;20024;-44
2024/01/25 10:56:46;;;;;;;15.40;5.43;;;;;;;26.97;38.17;102890.81;5065938;28;20106;-46
2024/01/25 10:59:11;;;;;;;21.85;6.47;;;;;;;26.94;37.97;102887.78;5084245;28;20405;-48
2024/01/25 11:01:37;;;;;;;18.70;5.55;;;;;;;26.98;37.86;102888.88;5067242;28;20028;-47
2024/01/25 11:04:03;;;;;;;61.35;6.90;;;;;;;26.94;38.11;102885.84;5078468;28;20028;-47
2024/01/25 11:06:28;;;;;;;20.15;5.55;;;;;;;26.91;37.97;102886.41;5077598;28;20028;-46
2024/01/25 11:09:05;;;;;;;20.73;5.72;;;;;;;26.91;37.87;102878.06;5036141;28;20055;-46